Time,TemperatureF,DewpointF,PressureIn,WindDirection,WindDirectionDegrees,WindSpeedMPH,WindSpeedGustMPH,Humidity,HourlyPrecipIn,Conditions,Clouds,dailyrainin,SoftwareType,DateUTC
2013-03-11 00:00:00,55.3,34.3,30.02,SSE,161,0.0,0.0,45,0.00,,,0.00,Wunderground v.1.15,2013-03-11 04:00:00,
2013-03-11 00:01:00,55.3,34.3,30.02,SSE,161,0.0,0.0,45,0.00,,,0.00,Wunderground v.1.15,2013-03-11 04:01:00,
2013-03-11 00:03:00,55.3,32.6,30.02,SSE,162,0.0,0.0,42,0.00,,,0.00,Wunderground v.1.15,2013-03-11 04:03:00,
2013-03-11 00:08:00,55.2,34.8,30.02,ESE,115,0.0,1.0,46,0.00,,,0.00,Wunderground v.1.15,2013-03-11 04:08:00,
2013-03-11 00:13:00,54.9,32.8,30.02,ESE,115,0.0,0.0,43,0.00,,,0.00,Wunderground v.1.15,2013-03-11 04:13:00,
2013-03-11 00:19:00,54.7,32.6,30.01,ESE,113,0.0,1.0,43,0.00,,,0.00,Wunderground v.1.15,2013-03-11 04:19:00,
2013-03-11 00:25:00,54.6,33.1,30.01,SSW,210,0.0,0.0,44,0.00,,,0.00,Wunderground v.1.15,2013-03-11 04:25:00,
2013-03-11 00:30:00,54.9,32.2,30.01,South,182,0.0,0.0,42,0.00,,,0.00,Wunderground v.1.15,2013-03-11 04:30:00,
2013-03-11 00:37:00,54.9,33.9,30.01,South,182,0.0,0.0,45,0.00,,,0.00,Wunderground v.1.15,2013-03-11 04:37:00,
2013-03-11 00:42:00,54.8,32.7,30.00,South,176,0.0,0.0,43,0.00,,,0.00,Wunderground v.1.15,2013-03-11 04:42:00,
2013-03-11 00:47:00,54.7,32.6,30.01,South,176,0.0,0.0,43,0.00,,,0.00,Wunderground v.1.15,2013-03-11 04:47:00,
2013-03-11 00:53:00,54.9,33.4,30.00,SW,229,0.0,0.0,44,0.00,,,0.00,Wunderground v.1.15,2013-03-11 04:53:00,
2013-03-11 00:58:00,54.8,33.3,30.00,SSW,192,0.0,0.0,44,0.00,,,0.00,Wunderground v.1.15,2013-03-11 04:58:00,
2013-03-11 01:04:00,54.9,34.5,30.00,SSW,192,0.0,0.0,46,0.00,,,0.00,Wunderground v.1.15,2013-03-11 05:04:00,
2013-03-11 01:09:00,54.7,32.0,30.00,SSW,213,0.0,1.0,42,0.00,,,0.00,Wunderground v.1.15,2013-03-11 05:09:00,
2013-03-11 01:14:00,54.8,32.1,30.00,SSE,166,0.0,1.0,42,0.00,,,0.00,Wunderground v.1.15,2013-03-11 05:14:00,
2013-03-11 01:19:00,54.8,32.1,30.00,SSE,161,0.0,2.0,42,0.00,,,0.00,Wunderground v.1.15,2013-03-11 05:19:00,
2013-03-11 01:25:00,54.9,32.8,29.99,ESE,117,0.0,0.0,43,0.00,,,0.00,Wunderground v.1.15,2013-03-11 05:25:00,
2013-03-11 01:32:00,54.8,33.3,29.99,ESE,117,0.0,0.0,44,0.00,,,0.00,Wunderground v.1.15,2013-03-11 05:32:00,
2013-03-11 01:38:00,54.9,32.8,29.99,SE,130,0.0,1.0,43,0.00,,,0.00,Wunderground v.1.15,2013-03-11 05:38:00,
2013-03-11 01:43:00,55.0,31.7,29.99,SSW,212,0.0,0.0,41,0.00,,,0.00,Wunderground v.1.15,2013-03-11 05:43:00,
2013-03-11 01:48:00,55.1,31.8,29.99,East,99,0.0,1.0,41,0.00,,,0.00,Wunderground v.1.15,2013-03-11 05:48:00,
2013-03-11 01:54:00,55.0,32.9,29.99,SSW,196,0.0,0.0,43,0.00,,,0.00,Wunderground v.1.15,2013-03-11 05:54:00,
2013-03-11 02:00:00,54.9,32.2,29.98,SSW,196,0.0,0.0,42,0.00,,,0.00,Wunderground v.1.15,2013-03-11 06:00:00,
2013-03-11 02:07:00,54.7,32.0,29.98,NNE,16,0.0,0.0,42,0.00,,,0.00,Wunderground v.1.15,2013-03-11 06:07:00,
2013-03-11 02:13:00,54.6,32.5,29.98,NNE,26,0.0,2.0,43,0.00,,,0.00,Wunderground v.1.15,2013-03-11 06:13:00,
2013-03-11 02:18:00,54.6,32.5,29.98,NNE,28,0.0,2.0,43,0.00,,,0.00,Wunderground v.1.15,2013-03-11 06:18:00,
2013-03-11 02:24:00,54.2,33.9,29.97,NNE,28,0.0,0.0,46,0.00,,,0.00,Wunderground v.1.15,2013-03-11 06:24:00,
2013-03-11 02:29:00,54.1,33.2,29.97,NNE,31,0.0,0.0,45,0.00,,,0.00,Wunderground v.1.15,2013-03-11 06:29:00,
2013-03-11 02:34:00,54.1,34.3,29.97,NNE,31,0.0,0.0,47,0.00,,,0.00,Wunderground v.1.15,2013-03-11 06:34:00,
2013-03-11 02:39:00,53.9,33.0,29.97,NNE,31,0.0,0.0,45,0.00,,,0.00,Wunderground v.1.15,2013-03-11 06:39:00,
2013-03-11 02:45:00,54.0,33.7,29.96,SSW,194,0.0,0.0,46,0.00,,,0.00,Wunderground v.1.15,2013-03-11 06:45:00,
2013-03-11 02:52:00,54.2,34.4,29.96,SSW,194,0.0,0.0,47,0.00,,,0.00,Wunderground v.1.15,2013-03-11 06:52:00,
2013-03-11 02:57:00,54.2,32.2,29.96,SE,144,0.0,1.0,43,0.00,,,0.00,Wunderground v.1.15,2013-03-11 06:57:00,
2013-03-11 03:02:00,54.4,32.9,29.96,East,98,0.0,0.0,44,0.00,,,0.00,Wunderground v.1.15,2013-03-11 07:02:00,
2013-03-11 03:07:00,54.5,32.4,29.96,North,10,0.0,0.0,43,0.00,,,0.00,Wunderground v.1.15,2013-03-11 07:07:00,
2013-03-11 03:13:00,54.5,35.2,29.96,North,10,0.0,0.0,48,0.00,,,0.00,Wunderground v.1.15,2013-03-11 07:13:00,
2013-03-11 03:18:00,54.2,32.7,29.96,North,10,0.0,0.0,44,0.00,,,0.00,Wunderground v.1.15,2013-03-11 07:18:00,
2013-03-11 03:23:00,53.9,34.6,29.95,North,10,0.0,0.0,48,0.00,,,0.00,Wunderground v.1.15,2013-03-11 07:23:00,
2013-03-11 03:28:00,53.5,34.8,29.95,North,10,0.0,0.0,49,0.00,,,0.00,Wunderground v.1.15,2013-03-11 07:28:00,
2013-03-11 03:33:00,53.3,35.6,29.95,North,10,0.0,0.0,51,0.00,,,0.00,Wunderground v.1.15,2013-03-11 07:33:00,
2013-03-11 03:39:00,53.0,34.8,29.94,North,10,0.0,0.0,50,0.00,,,0.00,Wunderground v.1.15,2013-03-11 07:39:00,
2013-03-11 03:45:00,52.8,33.6,29.94,North,10,0.0,0.0,48,0.00,,,0.00,Wunderground v.1.15,2013-03-11 07:45:00,
2013-03-11 03:50:00,52.7,34.1,29.94,North,10,0.0,0.0,49,0.00,,,0.00,Wunderground v.1.15,2013-03-11 07:50:00,
2013-03-11 03:55:00,52.6,36.4,29.94,North,10,0.0,0.0,54,0.00,,,0.00,Wunderground v.1.15,2013-03-11 07:55:00,
2013-03-11 04:00:00,52.4,37.2,29.93,North,10,0.0,0.0,56,0.00,,,0.00,Wunderground v.1.15,2013-03-11 08:00:00,
2013-03-11 04:07:00,51.9,35.3,29.93,North,10,0.0,0.0,53,0.00,,,0.00,Wunderground v.1.15,2013-03-11 08:07:00,
2013-03-11 04:13:00,51.7,36.0,29.93,North,10,0.0,0.0,55,0.00,,,0.00,Wunderground v.1.15,2013-03-11 08:13:00,
2013-03-11 04:18:00,51.5,37.2,29.93,North,10,0.0,0.0,58,0.00,,,0.00,Wunderground v.1.15,2013-03-11 08:18:00,
2013-03-11 04:24:00,51.3,35.7,29.93,North,10,0.0,0.0,55,0.00,,,0.00,Wunderground v.1.15,2013-03-11 08:24:00,
2013-03-11 04:29:00,51.0,36.3,29.92,North,10,0.0,0.0,57,0.00,,,0.00,Wunderground v.1.15,2013-03-11 08:29:00,
2013-03-11 04:34:00,50.8,38.7,29.92,North,10,0.0,0.0,63,0.00,,,0.00,Wunderground v.1.15,2013-03-11 08:34:00,
2013-03-11 04:39:00,50.4,36.6,29.91,North,10,0.0,0.0,59,0.00,,,0.00,Wunderground v.1.15,2013-03-11 08:39:00,
2013-03-11 04:45:00,50.0,36.2,29.91,North,10,0.0,0.0,59,0.00,,,0.00,Wunderground v.1.15,2013-03-11 08:45:00,
2013-03-11 04:50:00,49.7,36.8,29.91,North,10,0.0,0.0,61,0.00,,,0.00,Wunderground v.1.15,2013-03-11 08:50:00,
2013-03-11 04:57:00,49.4,35.7,29.91,North,10,0.0,0.0,59,0.00,,,0.00,Wunderground v.1.15,2013-03-11 08:57:00,
2013-03-11 05:03:00,49.1,35.8,29.92,North,10,0.0,0.0,60,0.00,,,0.00,Wunderground v.1.15,2013-03-11 09:03:00,
2013-03-11 05:08:00,49.0,35.7,29.92,North,10,0.0,0.0,60,0.00,,,0.00,Wunderground v.1.15,2013-03-11 09:08:00,
2013-03-11 05:14:00,48.9,38.4,29.92,North,10,0.0,0.0,67,0.00,,,0.00,Wunderground v.1.15,2013-03-11 09:14:00,
2013-03-11 05:20:00,48.7,37.5,29.92,North,10,0.0,0.0,65,0.00,,,0.00,Wunderground v.1.15,2013-03-11 09:20:00,
2013-03-11 05:25:00,48.5,36.5,29.92,North,10,0.0,0.0,63,0.00,,,0.00,Wunderground v.1.15,2013-03-11 09:25:00,
2013-03-11 05:30:00,48.3,37.8,29.92,North,10,0.0,0.0,67,0.00,,,0.00,Wunderground v.1.15,2013-03-11 09:30:00,
2013-03-11 05:36:00,48.0,35.6,29.92,North,10,0.0,0.0,62,0.00,,,0.00,Wunderground v.1.15,2013-03-11 09:36:00,
2013-03-11 05:42:00,47.9,35.9,29.92,North,10,0.0,0.0,63,0.00,,,0.00,Wunderground v.1.15,2013-03-11 09:42:00,
2013-03-11 05:47:00,47.8,36.6,29.91,North,10,0.0,0.0,65,0.00,,,0.00,Wunderground v.1.15,2013-03-11 09:47:00,
2013-03-11 05:53:00,47.7,35.3,29.91,North,10,0.0,0.0,62,0.00,,,0.00,Wunderground v.1.15,2013-03-11 09:53:00,
2013-03-11 05:58:00,47.7,36.1,29.91,North,10,0.0,0.0,64,0.00,,,0.00,Wunderground v.1.15,2013-03-11 09:58:00,
2013-03-11 06:04:00,47.7,37.7,29.92,North,10,0.0,0.0,68,0.00,,,0.00,Wunderground v.1.15,2013-03-11 10:04:00,
2013-03-11 06:10:00,47.8,36.2,29.91,North,10,0.0,0.0,64,0.00,,,0.00,Wunderground v.1.15,2013-03-11 10:10:00,
2013-03-11 06:15:00,47.7,36.9,29.92,North,10,0.0,0.0,66,0.00,,,0.00,Wunderground v.1.15,2013-03-11 10:15:00,
2013-03-11 06:22:00,47.6,36.8,29.92,North,10,0.0,0.0,66,0.00,,,0.00,Wunderground v.1.15,2013-03-11 10:22:00,
2013-03-11 06:28:00,47.5,37.8,29.92,North,10,0.0,0.0,69,0.00,,,0.00,Wunderground v.1.15,2013-03-11 10:28:00,
2013-03-11 06:33:00,47.3,36.1,29.92,North,10,0.0,0.0,65,0.00,,,0.00,Wunderground v.1.15,2013-03-11 10:33:00,
2013-03-11 06:39:00,47.2,36.4,29.92,North,10,0.0,0.0,66,0.00,,,0.00,Wunderground v.1.15,2013-03-11 10:39:00,
2013-03-11 06:44:00,47.5,36.3,29.92,NE,46,0.0,0.0,65,0.00,,,0.00,Wunderground v.1.15,2013-03-11 10:44:00,
2013-03-11 06:50:00,47.4,36.2,29.92,NE,46,0.0,0.0,65,0.00,,,0.00,Wunderground v.1.15,2013-03-11 10:50:00,
2013-03-11 06:55:00,47.2,37.2,29.92,NE,46,0.0,0.0,68,0.00,,,0.00,Wunderground v.1.15,2013-03-11 10:55:00,
2013-03-11 07:00:00,47.1,36.3,29.93,NE,46,0.0,0.0,66,0.00,,,0.00,Wunderground v.1.15,2013-03-11 11:00:00,
2013-03-11 07:06:00,47.0,36.6,29.93,NE,46,0.0,0.0,67,0.00,,,0.00,Wunderground v.1.15,2013-03-11 11:06:00,
2013-03-11 07:12:00,46.9,36.1,29.93,NE,46,0.0,0.0,66,0.00,,,0.00,Wunderground v.1.15,2013-03-11 11:12:00,
2013-03-11 07:17:00,46.8,36.4,29.93,NE,46,0.0,0.0,67,0.00,,,0.00,Wunderground v.1.15,2013-03-11 11:17:00,
2013-03-11 07:23:00,46.7,36.3,29.93,NE,46,0.0,0.0,67,0.00,,,0.00,Wunderground v.1.15,2013-03-11 11:23:00,
2013-03-11 07:29:00,46.6,36.6,29.93,NE,46,0.0,0.0,68,0.00,,,0.00,Wunderground v.1.15,2013-03-11 11:29:00,
2013-03-11 07:34:00,46.5,36.1,29.93,NE,46,0.0,0.0,67,0.00,,,0.00,Wunderground v.1.15,2013-03-11 11:34:00,
2013-03-11 07:40:00,46.4,36.4,29.93,NE,46,0.0,0.0,68,0.00,,,0.00,Wunderground v.1.15,2013-03-11 11:40:00,
2013-03-11 07:47:00,46.5,37.2,29.93,NE,46,0.0,0.0,70,0.00,,,0.00,Wunderground v.1.15,2013-03-11 11:47:00,
2013-03-11 07:52:00,46.5,36.9,29.93,NE,46,0.0,0.0,69,0.00,,,0.00,Wunderground v.1.15,2013-03-11 11:52:00,
2013-03-11 07:57:00,46.5,36.9,29.93,NE,46,0.0,0.0,69,0.00,,,0.00,Wunderground v.1.15,2013-03-11 11:57:00,
2013-03-11 08:03:00,46.4,37.5,29.93,NE,46,0.0,0.0,71,0.00,,,0.00,Wunderground v.1.15,2013-03-11 12:03:00,
2013-03-11 08:08:00,46.5,38.0,29.94,NE,46,0.0,0.0,72,0.00,,,0.00,Wunderground v.1.15,2013-03-11 12:08:00,
2013-03-11 08:14:00,46.5,36.9,29.93,NE,46,0.0,0.0,69,0.00,,,0.00,Wunderground v.1.15,2013-03-11 12:14:00,
2013-03-11 08:20:00,46.5,36.9,29.93,NE,46,0.0,0.0,69,0.00,,,0.00,Wunderground v.1.15,2013-03-11 12:20:00,
2013-03-11 08:25:00,46.5,38.0,29.93,NE,46,0.0,0.0,72,0.00,,,0.00,Wunderground v.1.15,2013-03-11 12:25:00,
2013-03-11 08:30:00,46.7,36.7,29.93,NE,46,0.0,0.0,68,0.00,,,0.00,Wunderground v.1.15,2013-03-11 12:30:00,
2013-03-11 08:36:00,46.8,37.5,29.94,NE,46,0.0,0.0,70,0.00,,,0.00,Wunderground v.1.15,2013-03-11 12:36:00,
2013-03-11 08:42:00,47.0,37.7,29.93,NE,46,0.0,0.0,70,0.00,,,0.00,Wunderground v.1.15,2013-03-11 12:42:00,
2013-03-11 08:47:00,47.1,37.8,29.94,NE,46,0.0,0.0,70,0.00,,,0.00,Wunderground v.1.15,2013-03-11 12:47:00,
2013-03-11 08:52:00,47.2,37.2,29.94,NE,46,0.0,0.0,68,0.00,,,0.00,Wunderground v.1.15,2013-03-11 12:52:00,
2013-03-11 08:58:00,47.3,37.6,29.94,NE,46,0.0,0.0,69,0.00,,,0.00,Wunderground v.1.15,2013-03-11 12:58:00,
2013-03-11 09:03:00,47.3,38.0,29.94,NE,46,0.0,0.0,70,0.00,,,0.00,Wunderground v.1.15,2013-03-11 13:03:00,
2013-03-11 09:08:00,47.4,37.7,29.94,NE,46,0.0,0.0,69,0.00,,,0.00,Wunderground v.1.15,2013-03-11 13:08:00,
2013-03-11 09:14:00,47.7,38.0,29.94,NE,46,0.0,0.0,69,0.00,,,0.00,Wunderground v.1.15,2013-03-11 13:14:00,
2013-03-11 09:20:00,48.0,37.9,29.94,NE,46,0.0,0.0,68,0.00,,,0.00,Wunderground v.1.15,2013-03-11 13:20:00,
2013-03-11 09:25:00,48.2,37.4,29.94,NE,46,0.0,0.0,66,0.00,,,0.00,Wunderground v.1.15,2013-03-11 13:25:00,
2013-03-11 09:31:00,48.5,38.4,29.94,NE,46,0.0,0.0,68,0.00,,,0.00,Wunderground v.1.15,2013-03-11 13:31:00,
2013-03-11 09:36:00,48.7,39.4,29.94,NE,46,0.0,0.0,70,0.00,,,0.00,Wunderground v.1.15,2013-03-11 13:36:00,
2013-03-11 09:42:00,49.2,39.1,29.94,NE,46,0.0,0.0,68,0.00,,,0.00,Wunderground v.1.15,2013-03-11 13:42:00,
2013-03-11 09:47:00,49.6,38.7,29.94,NE,46,0.0,0.0,66,0.00,,,0.00,Wunderground v.1.15,2013-03-11 13:47:00,
2013-03-11 09:53:00,50.1,38.4,29.94,NE,46,0.0,0.0,64,0.00,,,0.00,Wunderground v.1.15,2013-03-11 13:53:00,
2013-03-11 09:58:00,50.8,37.8,29.94,NE,46,0.0,0.0,61,0.00,,,0.00,Wunderground v.1.15,2013-03-11 13:58:00,
2013-03-11 10:04:00,51.8,35.7,29.94,SSE,148,0.0,0.0,54,0.00,,,0.00,Wunderground v.1.15,2013-03-11 14:04:00,
2013-03-11 10:09:00,52.9,35.2,29.94,SSW,207,0.0,0.0,51,0.00,,,0.00,Wunderground v.1.15,2013-03-11 14:09:00,
2013-03-11 10:15:00,53.8,38.0,29.94,ESE,119,0.0,0.0,55,0.00,,,0.00,Wunderground v.1.15,2013-03-11 14:15:00,
2013-03-11 10:20:00,54.3,33.4,29.94,ESE,119,0.0,0.0,45,0.00,,,0.00,Wunderground v.1.15,2013-03-11 14:20:00,
2013-03-11 10:27:00,55.0,34.6,29.94,NE,54,0.0,3.0,46,0.00,,,0.00,Wunderground v.1.15,2013-03-11 14:27:00,
2013-03-11 10:33:00,55.4,34.9,29.93,ENE,64,0.0,0.0,46,0.00,,,0.00,Wunderground v.1.15,2013-03-11 14:33:00,
2013-03-11 10:38:00,55.6,34.6,29.93,ENE,64,0.0,0.0,45,0.00,,,0.00,Wunderground v.1.15,2013-03-11 14:38:00,
2013-03-11 10:44:00,55.7,34.1,29.93,ENE,64,0.0,0.0,44,0.00,,,0.00,Wunderground v.1.15,2013-03-11 14:44:00,
2013-03-11 10:49:00,55.9,33.7,29.93,South,188,0.0,2.0,43,0.00,,,0.00,Wunderground v.1.15,2013-03-11 14:49:00,
2013-03-11 10:54:00,56.2,35.7,29.93,SSW,213,0.0,0.0,46,0.00,,,0.00,Wunderground v.1.15,2013-03-11 14:54:00,
2013-03-11 10:59:00,56.5,34.8,29.93,ESE,105,0.0,1.0,44,0.00,,,0.00,Wunderground v.1.15,2013-03-11 14:59:00,
2013-03-11 11:05:00,56.9,33.4,29.93,SE,144,0.0,1.0,41,0.00,,,0.00,Wunderground v.1.15,2013-03-11 15:05:00,
2013-03-11 11:11:00,57.5,33.3,29.93,SSW,207,0.0,0.0,40,0.00,,,0.00,Wunderground v.1.15,2013-03-11 15:11:00,
2013-03-11 11:16:00,58.0,34.4,29.92,ESE,117,0.0,0.0,41,0.00,,,0.00,Wunderground v.1.15,2013-03-11 15:16:00,
2013-03-11 11:22:00,58.4,33.5,29.92,SSW,203,0.0,2.0,39,0.00,,,0.00,Wunderground v.1.15,2013-03-11 15:22:00,
2013-03-11 11:28:00,58.7,33.1,29.92,South,175,0.0,2.0,38,0.00,,,0.00,Wunderground v.1.15,2013-03-11 15:28:00,
2013-03-11 11:34:00,59.0,33.4,29.91,ESE,123,1.0,2.0,38,0.00,,,0.00,Wunderground v.1.15,2013-03-11 15:34:00,
2013-03-11 11:40:00,59.3,33.0,29.90,East,101,1.0,1.0,37,0.00,,,0.00,Wunderground v.1.15,2013-03-11 15:40:00,
2013-03-11 11:45:00,59.5,33.2,29.90,ESE,107,1.0,1.0,37,0.00,,,0.00,Wunderground v.1.15,2013-03-11 15:45:00,
2013-03-11 11:52:00,59.9,34.9,29.90,East,92,0.0,0.0,39,0.00,,,0.00,Wunderground v.1.15,2013-03-11 15:52:00,
2013-03-11 11:58:00,60.3,33.9,29.90,South,178,0.0,2.0,37,0.00,,,0.00,Wunderground v.1.15,2013-03-11 15:58:00,
2013-03-11 12:03:00,60.7,32.1,29.89,North,360,1.0,3.0,34,0.00,,,0.00,Wunderground v.1.15,2013-03-11 16:03:00,
2013-03-11 12:08:00,61.0,34.5,29.89,ESE,110,1.0,3.0,37,0.00,,,0.00,Wunderground v.1.15,2013-03-11 16:08:00,
2013-03-11 12:14:00,61.3,32.7,29.88,SSW,201,1.0,1.0,34,0.00,,,0.00,Wunderground v.1.15,2013-03-11 16:14:00,
2013-03-11 12:20:00,61.6,34.4,29.88,SE,137,1.0,1.0,36,0.00,,,0.00,Wunderground v.1.15,2013-03-11 16:20:00,
2013-03-11 12:25:00,62.1,33.4,29.87,SW,234,1.0,2.0,34,0.00,,,0.00,Wunderground v.1.15,2013-03-11 16:25:00,
2013-03-11 12:31:00,62.8,35.4,29.86,East,86,1.0,1.0,36,0.00,,,0.00,Wunderground v.1.15,2013-03-11 16:31:00,
2013-03-11 12:37:00,63.4,33.8,29.87,SSW,196,1.0,5.0,33,0.00,,,0.00,Wunderground v.1.15,2013-03-11 16:37:00,
2013-03-11 12:43:00,63.8,32.6,29.87,SSE,167,1.0,2.0,31,0.00,,,0.00,Wunderground v.1.15,2013-03-11 16:43:00,
2013-03-11 12:48:00,63.8,31.7,29.88,South,173,1.0,4.0,30,0.00,,,0.00,Wunderground v.1.15,2013-03-11 16:48:00,
2013-03-11 12:54:00,63.6,33.2,29.87,South,190,2.0,3.0,32,0.00,,,0.00,Wunderground v.1.15,2013-03-11 16:54:00,
2013-03-11 12:59:00,63.5,31.5,29.85,ENE,76,1.0,4.0,30,0.00,,,0.00,Wunderground v.1.15,2013-03-11 16:59:00,
2013-03-11 13:04:00,63.5,33.1,29.85,SE,138,1.0,1.0,32,0.00,,,0.00,Wunderground v.1.15,2013-03-11 17:04:00,
2013-03-11 13:10:00,63.5,32.3,29.84,SSE,157,1.0,1.0,31,0.00,,,0.00,Wunderground v.1.15,2013-03-11 17:10:00,
2013-03-11 13:16:00,63.4,31.4,29.84,SE,135,1.0,1.0,30,0.00,,,0.00,Wunderground v.1.15,2013-03-11 17:16:00,
2013-03-11 13:21:00,63.1,31.9,29.86,ESE,109,1.0,1.0,31,0.00,,,0.00,Wunderground v.1.15,2013-03-11 17:21:00,
2013-03-11 13:27:00,62.9,31.8,29.86,ESE,121,1.0,2.0,31,0.00,,,0.00,Wunderground v.1.15,2013-03-11 17:27:00,
2013-03-11 13:34:00,62.8,31.7,29.85,East,84,1.0,2.0,31,0.00,,,0.00,Wunderground v.1.15,2013-03-11 17:34:00,
2013-03-11 13:39:00,62.7,31.6,29.84,ESE,110,1.0,4.0,31,0.00,,,0.00,Wunderground v.1.15,2013-03-11 17:39:00,
2013-03-11 13:45:00,62.8,32.5,29.82,SSW,198,1.0,2.0,32,0.00,,,0.00,Wunderground v.1.15,2013-03-11 17:45:00,
2013-03-11 13:51:00,63.0,32.7,29.85,SE,130,1.0,1.0,32,0.00,,,0.00,Wunderground v.1.15,2013-03-11 17:51:00,
2013-03-11 13:56:00,63.3,32.1,29.83,SE,143,1.0,2.0,31,0.00,,,0.00,Wunderground v.1.15,2013-03-11 17:56:00,
2013-03-11 14:02:00,63.5,32.3,29.83,ESE,116,1.0,6.0,31,0.00,,,0.00,Wunderground v.1.15,2013-03-11 18:02:00,
2013-03-11 14:07:00,63.6,32.4,29.84,ESE,121,1.0,6.0,31,0.00,,,0.00,Wunderground v.1.15,2013-03-11 18:07:00,
2013-03-11 14:13:00,63.6,32.4,29.83,ESE,107,2.0,3.0,31,0.00,,,0.00,Wunderground v.1.15,2013-03-11 18:13:00,
2013-03-11 14:19:00,63.7,33.3,29.81,SSW,200,2.0,5.0,32,0.00,,,0.00,Wunderground v.1.15,2013-03-11 18:19:00,
2013-03-11 14:25:00,63.6,32.4,29.80,South,173,2.0,3.0,31,0.00,,,0.00,Wunderground v.1.15,2013-03-11 18:25:00,
2013-03-11 14:30:00,63.4,32.2,29.79,SE,140,3.0,3.0,31,0.00,,,0.00,Wunderground v.1.15,2013-03-11 18:30:00,
2013-03-11 14:37:00,63.5,32.3,29.78,ESE,112,2.0,3.0,31,0.00,,,0.00,Wunderground v.1.15,2013-03-11 18:37:00,
2013-03-11 14:42:00,63.4,32.2,29.78,ESE,105,1.0,2.0,31,0.00,,,0.00,Wunderground v.1.15,2013-03-11 18:42:00,
2013-03-11 14:48:00,63.0,33.4,29.81,ESE,117,1.0,3.0,33,0.00,,,0.00,Wunderground v.1.15,2013-03-11 18:48:00,
2013-03-11 14:53:00,62.7,31.6,29.81,SE,126,2.0,2.0,31,0.00,,,0.00,Wunderground v.1.15,2013-03-11 18:53:00,
2013-03-11 14:59:00,62.4,32.1,29.81,SSW,211,2.0,3.0,32,0.00,,,0.00,Wunderground v.1.15,2013-03-11 18:59:00,
2013-03-11 15:05:00,62.0,31.8,29.81,SW,221,2.0,3.0,32,0.00,,,0.00,Wunderground v.1.15,2013-03-11 19:05:00,
2013-03-11 15:13:00,61.7,30.7,29.81,SSW,209,3.0,6.0,31,0.00,,,0.00,Wunderground v.1.15,2013-03-11 19:13:00,
2013-03-11 15:18:00,61.6,32.2,29.81,WNW,288,2.0,6.0,33,0.00,,,0.00,Wunderground v.1.15,2013-03-11 19:18:00,
2013-03-11 15:23:00,61.6,32.2,29.81,East,94,1.0,3.0,33,0.00,,,0.00,Wunderground v.1.15,2013-03-11 19:23:00,
2013-03-11 15:29:00,61.5,32.1,29.79,SE,136,1.0,3.0,33,0.00,,,0.00,Wunderground v.1.15,2013-03-11 19:29:00,
2013-03-11 15:34:00,61.4,30.5,29.80,North,355,1.0,5.0,31,0.00,,,0.00,Wunderground v.1.15,2013-03-11 19:34:00,
2013-03-11 15:40:00,61.4,31.3,29.79,East,97,2.0,2.0,32,0.00,,,0.00,Wunderground v.1.15,2013-03-11 19:40:00,
2013-03-11 15:47:00,61.3,31.2,29.79,South,191,2.0,4.0,32,0.00,,,0.00,Wunderground v.1.15,2013-03-11 19:47:00,
2013-03-11 15:53:00,61.3,31.9,29.80,SE,134,1.0,2.0,33,0.00,,,0.00,Wunderground v.1.15,2013-03-11 19:53:00,
2013-03-11 15:58:00,61.2,29.5,29.78,South,180,2.0,7.0,30,0.00,,,0.00,Wunderground v.1.15,2013-03-11 19:58:00,
2013-03-11 16:03:00,61.1,30.2,29.77,ESE,102,2.0,2.0,31,0.00,,,0.00,Wunderground v.1.15,2013-03-11 20:03:00,
2013-03-11 16:09:00,61.1,31.8,29.77,SW,220,1.0,7.0,33,0.00,,,0.00,Wunderground v.1.15,2013-03-11 20:09:00,
2013-03-11 16:14:00,61.0,30.9,29.76,ESE,123,2.0,6.0,32,0.00,,,0.00,Wunderground v.1.15,2013-03-11 20:14:00,
2013-03-11 16:20:00,61.0,30.9,29.77,ESE,109,2.0,2.0,32,0.00,,,0.00,Wunderground v.1.15,2013-03-11 20:20:00,
2013-03-11 16:25:00,60.9,31.6,29.76,ENE,68,2.0,5.0,33,0.00,,,0.00,Wunderground v.1.15,2013-03-11 20:25:00,
2013-03-11 16:31:00,60.7,31.4,29.76,NNE,28,3.0,3.0,33,0.00,,,0.00,Wunderground v.1.15,2013-03-11 20:31:00,
2013-03-11 16:36:00,60.7,31.4,29.76,NNE,13,2.0,3.0,33,0.00,,,0.00,Wunderground v.1.15,2013-03-11 20:36:00,
2013-03-11 16:42:00,60.7,31.4,29.75,SSE,150,1.0,2.0,33,0.00,,,0.00,Wunderground v.1.15,2013-03-11 20:42:00,
2013-03-11 16:48:00,60.5,32.7,29.73,SE,146,2.0,3.0,35,0.00,,,0.00,Wunderground v.1.15,2013-03-11 20:48:00,
2013-03-11 16:53:00,60.4,33.3,29.74,SE,130,2.0,3.0,36,0.00,,,0.00,Wunderground v.1.15,2013-03-11 20:53:00,
2013-03-11 16:59:00,60.3,33.2,29.73,SW,217,2.0,4.0,36,0.00,,,0.00,Wunderground v.1.15,2013-03-11 20:59:00,
2013-03-11 17:04:00,60.2,33.8,29.72,SE,145,2.0,2.0,37,0.00,,,0.00,Wunderground v.1.15,2013-03-11 21:04:00,
2013-03-11 17:10:00,60.2,33.8,29.75,South,188,2.0,2.0,37,0.00,,,0.00,Wunderground v.1.15,2013-03-11 21:10:00,
2013-03-11 17:16:00,60.2,33.8,29.73,SSW,209,1.0,10.0,37,0.00,,,0.00,Wunderground v.1.15,2013-03-11 21:16:00,
2013-03-11 17:22:00,60.2,34.5,29.73,SW,218,2.0,3.0,38,0.00,,,0.00,Wunderground v.1.15,2013-03-11 21:22:00,
2013-03-11 17:27:00,60.2,35.1,29.74,SE,136,3.0,5.0,39,0.00,,,0.00,Wunderground v.1.15,2013-03-11 21:27:00,
2013-03-11 17:33:00,60.2,35.8,29.73,SE,126,3.0,5.0,40,0.00,,,0.00,Wunderground v.1.15,2013-03-11 21:33:00,
2013-03-11 17:38:00,60.2,35.8,29.73,WSW,248,2.0,5.0,40,0.00,,,0.00,Wunderground v.1.15,2013-03-11 21:38:00,
2013-03-11 17:44:00,60.2,37.0,29.73,SSW,200,3.0,5.0,42,0.00,,,0.00,Wunderground v.1.15,2013-03-11 21:44:00,
2013-03-11 17:50:00,60.1,36.9,29.72,SSW,200,3.0,3.0,42,0.00,,,0.00,Wunderground v.1.15,2013-03-11 21:50:00,
2013-03-11 17:55:00,60.0,36.8,29.72,ENE,61,2.0,4.0,42,0.00,,,0.00,Wunderground v.1.15,2013-03-11 21:55:00,
2013-03-11 18:00:00,59.9,37.3,29.72,South,180,1.0,1.0,43,0.00,,,0.00,Wunderground v.1.15,2013-03-11 22:00:00,
2013-03-11 18:07:00,59.8,37.2,29.72,East,90,2.0,3.0,43,0.00,,,0.00,Wunderground v.1.15,2013-03-11 22:07:00,
2013-03-11 18:12:00,59.7,37.7,29.73,SE,126,2.0,4.0,44,0.00,,,0.00,Wunderground v.1.15,2013-03-11 22:12:00,
2013-03-11 18:17:00,59.6,38.2,29.72,WSW,251,2.0,4.0,45,0.00,,,0.00,Wunderground v.1.15,2013-03-11 22:17:00,
2013-03-11 18:22:00,59.4,38.6,29.72,SSE,150,2.0,5.0,46,0.00,,,0.00,Wunderground v.1.15,2013-03-11 22:22:00,
2013-03-11 18:28:00,59.3,39.1,29.70,SW,230,3.0,5.0,47,0.00,,,0.00,Wunderground v.1.15,2013-03-11 22:28:00,
2013-03-11 18:33:00,59.2,39.5,29.71,WNW,300,3.0,8.0,48,0.00,,,0.00,Wunderground v.1.15,2013-03-11 22:33:00,
2013-03-11 18:38:00,59.0,39.9,29.72,WNW,286,3.0,8.0,49,0.00,,,0.00,Wunderground v.1.15,2013-03-11 22:38:00,
2013-03-11 18:44:00,58.9,39.8,29.71,SE,136,2.0,3.0,49,0.00,,,0.00,Wunderground v.1.15,2013-03-11 22:44:00,
2013-03-11 18:50:00,58.8,40.7,29.71,SSE,167,2.0,2.0,51,0.00,,,0.00,Wunderground v.1.15,2013-03-11 22:50:00,
2013-03-11 18:55:00,58.6,40.5,29.72,SE,127,2.0,3.0,51,0.00,,,0.00,Wunderground v.1.15,2013-03-11 22:55:00,
2013-03-11 19:00:00,58.5,40.9,29.73,ESE,123,1.0,1.0,52,0.00,,,0.00,Wunderground v.1.15,2013-03-11 23:00:00,
2013-03-11 19:06:00,58.4,41.8,29.73,ESE,109,1.0,3.0,54,0.00,,,0.00,Wunderground v.1.15,2013-03-11 23:06:00,
2013-03-11 19:11:00,58.1,42.9,29.73,SSE,164,1.0,1.0,57,0.00,,,0.00,Wunderground v.1.15,2013-03-11 23:11:00,
2013-03-11 19:16:00,57.5,43.3,29.73,SSE,154,2.0,10.0,59,0.00,,,0.00,Wunderground v.1.15,2013-03-11 23:16:00,
2013-03-11 19:21:00,56.9,43.6,29.74,SW,217,2.0,6.0,61,0.00,,,0.00,Wunderground v.1.15,2013-03-11 23:21:00,
2013-03-11 19:27:00,56.3,44.7,29.73,SW,232,2.0,6.0,65,0.00,,,0.00,Wunderground v.1.15,2013-03-11 23:27:00,
2013-03-11 19:33:00,55.7,44.9,29.73,ESE,109,2.0,3.0,67,0.00,,,0.01,Wunderground v.1.15,2013-03-11 23:33:00,
2013-03-11 19:39:00,55.1,45.5,29.73,ESE,119,1.0,6.0,70,0.00,,,0.01,Wunderground v.1.15,2013-03-11 23:39:00,
2013-03-11 19:44:00,54.6,46.1,29.74,SE,138,1.0,1.0,73,0.05,,,0.02,Wunderground v.1.15,2013-03-11 23:44:00,
2013-03-11 19:50:00,53.9,45.8,29.73,ESE,123,0.0,0.0,74,0.05,,,0.02,Wunderground v.1.15,2013-03-11 23:50:00,
2013-03-11 19:55:00,53.7,46.0,29.72,ENE,71,1.0,3.0,75,0.05,,,0.02,Wunderground v.1.15,2013-03-11 23:55:00,
2013-03-11 20:01:00,53.7,45.6,29.72,SSW,209,2.0,2.0,74,0.00,,,0.02,Wunderground v.1.15,2013-03-12 00:01:00,
2013-03-11 20:07:00,53.6,45.5,29.72,SE,127,1.0,3.0,74,0.00,,,0.02,Wunderground v.1.15,2013-03-12 00:07:00,
2013-03-11 20:12:00,53.7,45.2,29.72,SSW,199,1.0,6.0,73,0.00,,,0.02,Wunderground v.1.15,2013-03-12 00:12:00,
2013-03-11 20:18:00,53.8,45.0,29.72,South,174,2.0,6.0,72,0.00,,,0.02,Wunderground v.1.15,2013-03-12 00:18:00,
2013-03-11 20:23:00,54.0,45.2,29.72,SSW,204,2.0,3.0,72,0.00,,,0.02,Wunderground v.1.15,2013-03-12 00:23:00,
2013-03-11 20:28:00,54.2,45.4,29.72,WNW,286,2.0,3.0,72,0.00,,,0.02,Wunderground v.1.15,2013-03-12 00:28:00,
2013-03-11 20:34:00,54.2,45.0,29.72,WSW,251,2.0,4.0,71,0.00,,,0.02,Wunderground v.1.15,2013-03-12 00:34:00,
2013-03-11 20:39:00,54.4,45.2,29.72,South,179,2.0,4.0,71,0.00,,,0.02,Wunderground v.1.15,2013-03-12 00:39:00,
2013-03-11 20:45:00,54.6,44.6,29.72,SSW,212,3.0,9.0,69,0.00,,,0.02,Wunderground v.1.15,2013-03-12 00:45:00,
2013-03-11 20:50:00,54.8,44.8,29.71,SSW,196,2.0,5.0,69,0.00,,,0.02,Wunderground v.1.15,2013-03-12 00:50:00,
2013-03-11 20:55:00,55.0,44.6,29.70,SE,128,2.0,5.0,68,0.00,,,0.02,Wunderground v.1.15,2013-03-12 00:55:00,
2013-03-11 21:01:00,55.1,44.3,29.69,SW,236,2.0,2.0,67,0.00,,,0.02,Wunderground v.1.15,2013-03-12 01:01:00,
2013-03-11 21:07:00,55.3,44.1,29.70,NNW,332,2.0,3.0,66,0.00,,,0.02,Wunderground v.1.15,2013-03-12 01:07:00,
2013-03-11 21:12:00,55.3,44.5,29.71,SW,230,1.0,2.0,67,0.00,,,0.02,Wunderground v.1.15,2013-03-12 01:12:00,
2013-03-11 21:18:00,55.4,44.2,29.72,SE,126,1.0,3.0,66,0.00,,,0.02,Wunderground v.1.15,2013-03-12 01:18:00,
2013-03-11 21:24:00,55.4,44.6,29.71,ESE,117,1.0,4.0,67,0.00,,,0.02,Wunderground v.1.15,2013-03-12 01:24:00,
2013-03-11 21:29:00,55.6,44.4,29.72,NE,56,1.0,5.0,66,0.00,,,0.02,Wunderground v.1.15,2013-03-12 01:29:00,
2013-03-11 21:35:00,56.0,44.0,29.71,SW,218,2.0,5.0,64,0.00,,,0.02,Wunderground v.1.15,2013-03-12 01:35:00,
2013-03-11 21:40:00,56.2,44.6,29.71,ENE,73,2.0,2.0,65,0.00,,,0.02,Wunderground v.1.15,2013-03-12 01:40:00,
2013-03-11 21:47:00,56.2,44.2,29.71,East,96,2.0,4.0,64,0.00,,,0.02,Wunderground v.1.15,2013-03-12 01:47:00,
2013-03-11 21:53:00,56.5,45.3,29.71,ENE,72,3.0,9.0,66,0.00,,,0.02,Wunderground v.1.15,2013-03-12 01:53:00,
2013-03-11 21:58:00,56.4,45.2,29.71,ESE,105,2.0,9.0,66,0.00,,,0.02,Wunderground v.1.15,2013-03-12 01:58:00,
2013-03-11 22:04:00,56.5,44.9,29.72,SE,142,2.0,3.0,65,0.00,,,0.02,Wunderground v.1.15,2013-03-12 02:04:00,
2013-03-11 22:09:00,56.4,45.6,29.72,ESE,106,2.0,4.0,67,0.00,,,0.02,Wunderground v.1.15,2013-03-12 02:09:00,
2013-03-11 22:15:00,56.4,46.0,29.72,East,94,2.0,8.0,68,0.00,,,0.02,Wunderground v.1.15,2013-03-12 02:15:00,
2013-03-11 22:21:00,56.2,46.2,29.73,ESE,123,1.0,4.0,69,0.00,,,0.02,Wunderground v.1.15,2013-03-12 02:21:00,
2013-03-11 22:27:00,55.6,47.4,29.74,ESE,103,1.0,4.0,74,0.00,,,0.02,Wunderground v.1.15,2013-03-12 02:27:00,
2013-03-11 22:33:00,54.8,47.7,29.74,North,5,0.0,0.0,77,0.00,,,0.02,Wunderground v.1.15,2013-03-12 02:33:00,
2013-03-11 22:38:00,54.2,47.5,29.74,North,5,0.0,0.0,78,0.00,,,0.02,Wunderground v.1.15,2013-03-12 02:38:00,
2013-03-11 22:44:00,53.7,48.3,29.75,North,5,0.0,0.0,82,0.00,,,0.03,Wunderground v.1.15,2013-03-12 02:44:00,
2013-03-11 22:49:00,53.2,48.2,29.75,East,88,0.0,0.0,83,0.00,,,0.03,Wunderground v.1.15,2013-03-12 02:49:00,
2013-03-11 22:55:00,52.8,48.7,29.75,ESE,119,0.0,2.0,86,0.09,,,0.04,Wunderground v.1.15,2013-03-12 02:55:00,
2013-03-11 23:00:00,52.7,48.9,29.74,ESE,114,1.0,1.0,87,0.07,,,0.05,Wunderground v.1.15,2013-03-12 03:00:00,
2013-03-11 23:06:00,52.8,49.0,29.74,SE,126,2.0,5.0,87,0.07,,,0.05,Wunderground v.1.15,2013-03-12 03:06:00,
2013-03-11 23:11:00,52.7,48.6,29.74,SE,138,1.0,1.0,86,0.05,,,0.05,Wunderground v.1.15,2013-03-12 03:11:00,
2013-03-11 23:17:00,52.7,48.6,29.74,East,94,1.0,2.0,86,0.00,,,0.05,Wunderground v.1.15,2013-03-12 03:17:00,
2013-03-11 23:22:00,52.9,48.8,29.74,SSW,198,2.0,2.0,86,0.00,,,0.05,Wunderground v.1.15,2013-03-12 03:22:00,
2013-03-11 23:28:00,53.0,48.9,29.74,SSW,192,2.0,5.0,86,0.00,,,0.05,Wunderground v.1.15,2013-03-12 03:28:00,
2013-03-11 23:34:00,53.0,48.9,29.74,SE,134,2.0,3.0,86,0.00,,,0.05,Wunderground v.1.15,2013-03-12 03:34:00,
2013-03-11 23:39:00,53.0,49.2,29.74,South,171,1.0,3.0,87,0.00,,,0.06,Wunderground v.1.15,2013-03-12 03:39:00,
2013-03-11 23:45:00,52.8,49.3,29.77,NNE,28,1.0,1.0,88,0.07,,,0.06,Wunderground v.1.15,2013-03-12 03:45:00,
2013-03-11 23:50:00,52.3,48.5,29.77,ESE,117,1.0,3.0,87,0.30,,,0.10,Wunderground v.1.15,2013-03-12 03:50:00,
2013-03-11 23:55:00,51.7,48.0,29.76,SE,140,1.0,3.0,87,0.21,,,0.11,Wunderground v.1.15,2013-03-12 03:55:00,